sensor_id;sensor_type;location;lat;lon;timestamp;pressure;altitude;pressure_sealevel;temperature;humidity
3748;BME280;1889;50.058;8.688;2023-03-25T00:02:03;99377.66;;;12.37;68.63
3748;BME280;1889;50.058;8.688;2023-03-25T00:04:33;99375.00;;;12.49;68.31
3748;BME280;1889;50.058;8.688;2023-03-25T00:07:04;99376.47;;;12.09;69.31
3748;BME280;1889;50.058;8.688;2023-03-25T00:09:34;99368.78;;;12.03;69.38
3748;BME280;1889;50.058;8.688;2023-03-25T00:12:03;99373.78;;;11.99;69.60
3748;BME280;1889;50.058;8.688;2023-03-25T00:14:32;99369.97;;;11.95;69.22
3748;BME280;1889;50.058;8.688;2023-03-25T00:17:02;99372.40;;;11.50;70.64
3748;BME280;1889;50.058;8.688;2023-03-25T00:19:31;99372.40;;;11.50;70.64
3748;BME280;1889;50.058;8.688;2023-03-25T00:22:01;99369.45;;;11.59;70.90
3748;BME280;1889;50.058;8.688;2023-03-25T00:24:30;99372.34;;;11.38;71.68
3748;BME280;1889;50.058;8.688;2023-03-25T00:26:59;99372.83;;;11.62;70.81
3748;BME280;1889;50.058;8.688;2023-03-25T00:29:29;99370.83;;;11.83;69.87
3748;BME280;1889;50.058;8.688;2023-03-25T00:31:58;99377.01;;;11.82;70.09
3748;BME280;1889;50.058;8.688;2023-03-25T00:34:27;99379.11;;;11.84;69.96
3748;BME280;1889;50.058;8.688;2023-03-25T00:36:57;99379.11;;;11.84;69.96
3748;BME280;1889;50.058;8.688;2023-03-25T00:39:27;99375.00;;;12.14;68.30
3748;BME280;1889;50.058;8.688;2023-03-25T00:41:56;99372.89;;;12.35;67.79
3748;BME280;1889;50.058;8.688;2023-03-25T00:44:26;99372.89;;;12.35;67.79
3748;BME280;1889;50.058;8.688;2023-03-25T00:46:55;99374.49;;;12.16;67.74
3748;BME280;1889;50.058;8.688;2023-03-25T00:49:24;99381.59;;;12.14;67.60
3748;BME280;1889;50.058;8.688;2023-03-25T00:51:55;99378.20;;;11.72;68.21
3748;BME280;1889;50.058;8.688;2023-03-25T00:54:25;99394.41;;;11.75;68.68
3748;BME280;1889;50.058;8.688;2023-03-25T00:56:54;99397.42;;;11.76;68.31
3748;BME280;1889;50.058;8.688;2023-03-25T00:59:23;99396.88;;;11.79;67.89
3748;BME280;1889;50.058;8.688;2023-03-25T01:01:53;99392.91;;;11.53;68.58
3748;BME280;1889;50.058;8.688;2023-03-25T01:04:23;99392.51;;;11.65;68.52
3748;BME280;1889;50.058;8.688;2023-03-25T01:06:52;99387.16;;;11.93;67.63
3748;BME280;1889;50.058;8.688;2023-03-25T01:09:22;99391.11;;;12.06;66.98
3748;BME280;1889;50.058;8.688;2023-03-25T01:11:51;99390.56;;;12.08;66.63
3748;BME280;1889;50.058;8.688;2023-03-25T01:14:21;99372.03;;;12.23;65.51
3748;BME280;1889;50.058;8.688;2023-03-25T01:16:52;99372.03;;;12.23;65.51
3748;BME280;1889;50.058;8.688;2023-03-25T01:19:22;99361.30;;;12.28;65.73
3748;BME280;1889;50.058;8.688;2023-03-25T01:21:52;99356.78;;;12.31;65.09
3748;BME280;1889;50.058;8.688;2023-03-25T01:24:21;99355.64;;;11.90;66.15
3748;BME280;1889;50.058;8.688;2023-03-25T01:26:51;99360.81;;;12.16;65.87
3748;BME280;1889;50.058;8.688;2023-03-25T01:29:41;99362.70;;;12.01;65.54
3748;BME280;1889;50.058;8.688;2023-03-25T01:32:10;99356.11;;;11.76;65.80
3748;BME280;1889;50.058;8.688;2023-03-25T01:34:39;99356.11;;;11.76;65.80
3748;BME280;1889;50.058;8.688;2023-03-25T01:37:10;99357.74;;;11.67;66.57
3748;BME280;1889;50.058;8.688;2023-03-25T01:39:39;99358.19;;;11.54;66.73
3748;BME280;1889;50.058;8.688;2023-03-25T01:42:10;99360.14;;;11.75;66.12
3748;BME280;1889;50.058;8.688;2023-03-25T01:47:13;99347.71;;;12.15;64.93
3748;BME280;1889;50.058;8.688;2023-03-25T01:49:44;99347.71;;;12.15;64.93
3748;BME280;1889;50.058;8.688;2023-03-25T01:52:17;99339.27;;;12.05;65.53
3748;BME280;1889;50.058;8.688;2023-03-25T01:54:47;99339.27;;;12.05;65.53
3748;BME280;1889;50.058;8.688;2023-03-25T01:57:20;99340.10;;;11.82;65.51
3748;BME280;1889;50.058;8.688;2023-03-25T01:59:51;99338.92;;;12.26;64.70
3748;BME280;1889;50.058;8.688;2023-03-25T02:02:22;99338.92;;;11.78;65.90
3748;BME280;1889;50.058;8.688;2023-03-25T02:04:59;99338.92;;;11.78;65.90
3748;BME280;1889;50.058;8.688;2023-03-25T02:07:33;99333.95;;;12.07;65.27
3748;BME280;1889;50.058;8.688;2023-03-25T02:10:06;99330.45;;;12.30;64.36
3748;BME280;1889;50.058;8.688;2023-03-25T02:12:35;99320.05;;;12.25;65.11
3748;BME280;1889;50.058;8.688;2023-03-25T02:15:06;99320.05;;;12.25;65.11
3748;BME280;1889;50.058;8.688;2023-03-25T02:18:40;99323.69;;;12.22;65.10
3748;BME280;1889;50.058;8.688;2023-03-25T02:23:41;99323.26;;;12.33;64.81
3748;BME280;1889;50.058;8.688;2023-03-25T02:29:36;99314.62;;;12.06;66.28
3748;BME280;1889;50.058;8.688;2023-03-25T02:35:00;99314.55;;;11.96;67.26
3748;BME280;1889;50.058;8.688;2023-03-25T02:40:32;99314.16;;;12.07;67.37
3748;BME280;1889;50.058;8.688;2023-03-25T02:43:09;99303.90;;;11.99;67.26
3748;BME280;1889;50.058;8.688;2023-03-25T02:45:36;99300.34;;;12.23;67.24
3748;BME280;1889;50.058;8.688;2023-03-25T02:48:10;99299.53;;;11.73;68.01
3748;BME280;1889;50.058;8.688;2023-03-25T02:50:47;99297.45;;;11.70;69.01
3748;BME280;1889;50.058;8.688;2023-03-25T02:53:18;99296.31;;;12.02;68.71
3748;BME280;1889;50.058;8.688;2023-03-25T02:55:44;99292.14;;;12.31;67.73
3748;BME280;1889;50.058;8.688;2023-03-25T02:58:16;99294.05;;;12.49;67.01
3748;BME280;1889;50.058;8.688;2023-03-25T03:00:49;99291.79;;;12.40;67.14
3748;BME280;1889;50.058;8.688;2023-03-25T03:03:20;99293.56;;;12.40;67.03
3748;BME280;1889;50.058;8.688;2023-03-25T03:05:50;99289.52;;;12.53;66.86
3748;BME280;1889;50.058;8.688;2023-03-25T03:08:41;99305.81;;;12.52;65.89
3748;BME280;1889;50.058;8.688;2023-03-25T03:17:11;99307.40;;;12.23;67.03
3748;BME280;1889;50.058;8.688;2023-03-25T03:19:56;99305.83;;;11.82;67.51
3748;BME280;1889;50.058;8.688;2023-03-25T03:22:54;99304.38;;;11.85;67.18
3748;BME280;1889;50.058;8.688;2023-03-25T03:28:15;99310.67;;;11.68;67.10
3748;BME280;1889;50.058;8.688;2023-03-25T03:30:50;99309.95;;;11.90;66.38
3748;BME280;1889;50.058;8.688;2023-03-25T03:33:30;99318.09;;;11.83;66.35
3748;BME280;1889;50.058;8.688;2023-03-25T03:36:24;99323.67;;;11.99;65.66
3748;BME280;1889;50.058;8.688;2023-03-25T03:38:41;99322.52;;;12.18;65.42
3748;BME280;1889;50.058;8.688;2023-03-25T03:41:09;99325.67;;;12.04;65.62
3748;BME280;1889;50.058;8.688;2023-03-25T03:49:14;99315.91;;;11.95;65.86
3748;BME280;1889;50.058;8.688;2023-03-25T03:51:54;99320.95;;;12.01;65.78
3748;BME280;1889;50.058;8.688;2023-03-25T03:54:25;99326.48;;;12.06;65.27
3748;BME280;1889;50.058;8.688;2023-03-25T03:56:58;99322.91;;;11.96;64.90
3748;BME280;1889;50.058;8.688;2023-03-25T04:03:30;99335.12;;;12.10;64.47
3748;BME280;1889;50.058;8.688;2023-03-25T04:05:17;99327.98;;;12.13;63.79
3748;BME280;1889;50.058;8.688;2023-03-25T04:07:51;99327.98;;;12.13;63.79
3748;BME280;1889;50.058;8.688;2023-03-25T04:10:27;99334.27;;;11.98;63.82
3748;BME280;1889;50.058;8.688;2023-03-25T04:12:55;99353.03;;;11.37;65.75
3748;BME280;1889;50.058;8.688;2023-03-25T04:15:26;99353.03;;;11.37;65.75
3748;BME280;1889;50.058;8.688;2023-03-25T04:17:55;99344.61;;;11.53;65.44
3748;BME280;1889;50.058;8.688;2023-03-25T04:20:25;99348.58;;;11.39;65.31
3748;BME280;1889;50.058;8.688;2023-03-25T04:22:56;99347.98;;;11.69;64.99
3748;BME280;1889;50.058;8.688;2023-03-25T04:25:26;99344.28;;;11.88;64.44
3748;BME280;1889;50.058;8.688;2023-03-25T04:27:57;99351.44;;;11.71;64.54
3748;BME280;1889;50.058;8.688;2023-03-25T04:30:28;99346.91;;;11.50;65.23
3748;BME280;1889;50.058;8.688;2023-03-25T04:32:58;99354.05;;;11.46;65.44
3748;BME280;1889;50.058;8.688;2023-03-25T04:35:27;99354.05;;;11.46;65.44
3748;BME280;1889;50.058;8.688;2023-03-25T04:37:58;99360.63;;;11.46;65.15
3748;BME280;1889;50.058;8.688;2023-03-25T04:40:28;99365.56;;;11.18;65.88
3748;BME280;1889;50.058;8.688;2023-03-25T04:42:58;99366.05;;;11.16;65.90
3748;BME280;1889;50.058;8.688;2023-03-25T04:45:27;99369.56;;;11.42;65.59
3748;BME280;1889;50.058;8.688;2023-03-25T04:47:57;99375.34;;;11.40;65.02
3748;BME280;1889;50.058;8.688;2023-03-25T04:50:28;99369.49;;;11.44;65.25
3748;BME280;1889;50.058;8.688;2023-03-25T04:52:59;99377.45;;;11.56;64.55
3748;BME280;1889;50.058;8.688;2023-03-25T04:55:28;99375.27;;;11.55;64.29
3748;BME280;1889;50.058;8.688;2023-03-25T04:57:58;99385.77;;;11.30;65.29
3748;BME280;1889;50.058;8.688;2023-03-25T05:00:28;99378.42;;;11.40;64.89
3748;BME280;1889;50.058;8.688;2023-03-25T05:02:57;99379.74;;;11.40;64.86
3748;BME280;1889;50.058;8.688;2023-03-25T05:05:28;99380.62;;;11.13;65.61
3748;BME280;1889;50.058;8.688;2023-03-25T05:07:57;99384.98;;;11.14;65.29
3748;BME280;1889;50.058;8.688;2023-03-25T05:10:28;99375.89;;;11.24;65.67
3748;BME280;1889;50.058;8.688;2023-03-25T05:12:59;99382.29;;;11.43;65.11
3748;BME280;1889;50.058;8.688;2023-03-25T05:15:30;99374.11;;;11.37;64.81
3748;BME280;1889;50.058;8.688;2023-03-25T05:18:02;99379.80;;;11.25;65.43
3748;BME280;1889;50.058;8.688;2023-03-25T05:20:31;99375.39;;;11.26;64.95
3748;BME280;1889;50.058;8.688;2023-03-25T05:23:02;99391.20;;;10.98;66.30
3748;BME280;1889;50.058;8.688;2023-03-25T05:25:32;99379.18;;;11.30;65.37
3748;BME280;1889;50.058;8.688;2023-03-25T05:28:03;99380.34;;;11.48;64.71
3748;BME280;1889;50.058;8.688;2023-03-25T05:30:33;99381.63;;;11.50;64.21
3748;BME280;1889;50.058;8.688;2023-03-25T05:33:04;99394.28;;;10.97;65.54
3748;BME280;1889;50.058;8.688;2023-03-25T05:35:33;99402.55;;;11.00;66.85
3748;BME280;1889;50.058;8.688;2023-03-25T05:38:04;99409.47;;;11.17;66.90
3748;BME280;1889;50.058;8.688;2023-03-25T05:40:35;99416.71;;;11.37;66.81
3748;BME280;1889;50.058;8.688;2023-03-25T05:43:05;99425.60;;;11.34;68.65
3748;BME280;1889;50.058;8.688;2023-03-25T05:45:34;99430.33;;;11.10;71.00
3748;BME280;1889;50.058;8.688;2023-03-25T05:48:04;99430.63;;;11.27;71.84
3748;BME280;1889;50.058;8.688;2023-03-25T05:50:35;99425.15;;;11.35;71.33
3748;BME280;1889;50.058;8.688;2023-03-25T05:53:05;99431.25;;;11.35;71.14
3748;BME280;1889;50.058;8.688;2023-03-25T05:55:34;99423.63;;;11.13;71.28
3748;BME280;1889;50.058;8.688;2023-03-25T05:58:04;99432.02;;;10.83;71.48
3748;BME280;1889;50.058;8.688;2023-03-25T06:00:34;99432.59;;;11.07;71.49
3748;BME280;1889;50.058;8.688;2023-03-25T06:03:05;99428.44;;;11.14;71.21
3748;BME280;1889;50.058;8.688;2023-03-25T06:05:37;99423.55;;;11.16;71.14
3748;BME280;1889;50.058;8.688;2023-03-25T06:08:06;99437.20;;;11.42;70.19
3748;BME280;1889;50.058;8.688;2023-03-25T06:10:35;99429.19;;;11.32;70.04
3748;BME280;1889;50.058;8.688;2023-03-25T06:13:04;99426.84;;;10.80;70.99
3748;BME280;1889;50.058;8.688;2023-03-25T06:15:34;99426.16;;;10.88;71.40
3748;BME280;1889;50.058;8.688;2023-03-25T06:18:05;99431.34;;;10.91;71.61
3748;BME280;1889;50.058;8.688;2023-03-25T06:20:34;99433.88;;;10.65;72.40
3748;BME280;1889;50.058;8.688;2023-03-25T06:23:04;99437.03;;;11.05;71.38
3748;BME280;1889;50.058;8.688;2023-03-25T06:25:33;99438.64;;;10.82;71.88
3748;BME280;1889;50.058;8.688;2023-03-25T06:28:03;99436.68;;;10.88;72.10
3748;BME280;1889;50.058;8.688;2023-03-25T06:30:32;99435.01;;;11.00;71.34
3748;BME280;1889;50.058;8.688;2023-03-25T06:33:01;99443.53;;;11.08;70.83
3748;BME280;1889;50.058;8.688;2023-03-25T06:35:32;99432.09;;;10.95;71.42
3748;BME280;1889;50.058;8.688;2023-03-25T06:38:01;99440.14;;;10.76;71.33
3748;BME280;1889;50.058;8.688;2023-03-25T06:40:31;99436.41;;;10.97;71.20
3748;BME280;1889;50.058;8.688;2023-03-25T06:43:02;99438.41;;;11.45;69.61
3748;BME280;1889;50.058;8.688;2023-03-25T06:45:32;99438.41;;;11.45;69.61
3748;BME280;1889;50.058;8.688;2023-03-25T06:48:02;99430.72;;;11.65;68.99
3748;BME280;1889;50.058;8.688;2023-03-25T06:50:32;99434.61;;;11.54;69.16
3748;BME280;1889;50.058;8.688;2023-03-25T06:53:02;99441.45;;;11.33;69.32
3748;BME280;1889;50.058;8.688;2023-03-25T06:55:31;99446.92;;;11.12;69.83
3748;BME280;1889;50.058;8.688;2023-03-25T06:58:00;99442.26;;;11.07;70.10
3748;BME280;1889;50.058;8.688;2023-03-25T07:00:29;99434.75;;;11.36;69.49
3748;BME280;1889;50.058;8.688;2023-03-25T07:02:59;99432.54;;;11.63;69.02
3748;BME280;1889;50.058;8.688;2023-03-25T07:05:28;99423.86;;;11.74;67.95
3748;BME280;1889;50.058;8.688;2023-03-25T07:07:58;99422.23;;;11.83;67.59
3748;BME280;1889;50.058;8.688;2023-03-25T07:10:29;99427.04;;;12.09;66.70
3748;BME280;1889;50.058;8.688;2023-03-25T07:12:59;99422.39;;;12.29;65.53
3748;BME280;1889;50.058;8.688;2023-03-25T07:15:28;99417.30;;;12.11;64.75
3748;BME280;1889;50.058;8.688;2023-03-25T07:17:58;99423.88;;;11.73;65.88
3748;BME280;1889;50.058;8.688;2023-03-25T07:20:27;99431.92;;;11.83;65.77
3748;BME280;1889;50.058;8.688;2023-03-25T07:22:57;99420.80;;;11.87;65.16
3748;BME280;1889;50.058;8.688;2023-03-25T07:25:26;99423.89;;;11.86;64.80
3748;BME280;1889;50.058;8.688;2023-03-25T07:27:55;99424.73;;;11.73;65.28
3748;BME280;1889;50.058;8.688;2023-03-25T07:30:24;99433.48;;;11.89;65.18
3748;BME280;1889;50.058;8.688;2023-03-25T07:32:54;99429.98;;;12.13;64.52
3748;BME280;1889;50.058;8.688;2023-03-25T07:35:23;99434.86;;;12.12;63.18
3748;BME280;1889;50.058;8.688;2023-03-25T07:37:53;99431.84;;;12.22;63.45
3748;BME280;1889;50.058;8.688;2023-03-25T07:40:22;99422.19;;;12.46;62.98
3748;BME280;1889;50.058;8.688;2023-03-25T07:42:52;99425.63;;;12.72;61.47
3748;BME280;1889;50.058;8.688;2023-03-25T07:45:21;99425.47;;;12.65;61.70
3748;BME280;1889;50.058;8.688;2023-03-25T07:47:50;99426.53;;;12.82;61.50
3748;BME280;1889;50.058;8.688;2023-03-25T07:50:21;99426.88;;;12.50;61.33
3748;BME280;1889;50.058;8.688;2023-03-25T07:52:51;99418.91;;;12.51;60.90
3748;BME280;1889;50.058;8.688;2023-03-25T07:55:20;99425.56;;;12.38;61.70
3748;BME280;1889;50.058;8.688;2023-03-25T07:57:50;99420.22;;;12.51;60.77
3748;BME280;1889;50.058;8.688;2023-03-25T08:00:20;99422.41;;;12.87;60.80
3748;BME280;1889;50.058;8.688;2023-03-25T08:57:11;99407.77;;;12.67;56.87
3748;BME280;1889;50.058;8.688;2023-03-25T08:59:40;99413.27;;;12.84;56.29
3748;BME280;1889;50.058;8.688;2023-03-25T09:02:11;99417.88;;;12.79;56.42
3748;BME280;1889;50.058;8.688;2023-03-25T09:04:40;99402.08;;;12.66;56.80
3748;BME280;1889;50.058;8.688;2023-03-25T09:07:10;99402.91;;;12.56;56.86
3748;BME280;1889;50.058;8.688;2023-03-25T09:09:39;99383.20;;;12.76;56.94
3748;BME280;1889;50.058;8.688;2023-03-25T09:12:09;99410.23;;;12.83;56.58
3748;BME280;1889;50.058;8.688;2023-03-25T09:14:38;99397.83;;;12.85;55.93
3748;BME280;1889;50.058;8.688;2023-03-25T09:17:08;99372.84;;;12.93;55.85
3748;BME280;1889;50.058;8.688;2023-03-25T09:19:38;99369.34;;;12.93;55.11
3748;BME280;1889;50.058;8.688;2023-03-25T09:22:07;99369.95;;;12.99;55.90
3748;BME280;1889;50.058;8.688;2023-03-25T09:24:36;99372.75;;;13.07;55.72
3748;BME280;1889;50.058;8.688;2023-03-25T09:27:06;99385.67;;;13.14;55.71
3748;BME280;1889;50.058;8.688;2023-03-25T09:29:36;99368.14;;;13.23;55.68
3748;BME280;1889;50.058;8.688;2023-03-25T09:32:05;99363.69;;;13.35;55.84
3748;BME280;1889;50.058;8.688;2023-03-25T09:34:34;99357.47;;;13.47;56.12
3748;BME280;1889;50.058;8.688;2023-03-25T09:37:06;99360.35;;;13.30;56.30
3748;BME280;1889;50.058;8.688;2023-03-25T09:39:35;99345.45;;;13.29;56.35
3748;BME280;1889;50.058;8.688;2023-03-25T09:42:12;99353.27;;;13.53;56.09
3748;BME280;1889;50.058;8.688;2023-03-25T09:47:56;99361.08;;;13.66;56.48
3748;BME280;1889;50.058;8.688;2023-03-25T09:50:27;99362.78;;;13.97;55.51
3748;BME280;1889;50.058;8.688;2023-03-25T09:55:43;99357.83;;;13.90;56.24
3748;BME280;1889;50.058;8.688;2023-03-25T09:58:40;99424.48;;;13.88;55.84
3748;BME280;1889;50.058;8.688;2023-03-25T10:04:31;99458.92;;;11.76;70.94
3748;BME280;1889;50.058;8.688;2023-03-25T10:10:13;99462.70;;;10.84;76.74
3748;BME280;1889;50.058;8.688;2023-03-25T10:20:58;99467.26;;;10.14;78.56
3748;BME280;1889;50.058;8.688;2023-03-25T10:24:34;99463.45;;;10.27;78.84
3748;BME280;1889;50.058;8.688;2023-03-25T10:26:29;99466.38;;;10.48;76.73
3748;BME280;1889;50.058;8.688;2023-03-25T10:35:28;99441.98;;;10.43;73.32
3748;BME280;1889;50.058;8.688;2023-03-25T10:37:56;99441.49;;;10.45;73.62
3748;BME280;1889;50.058;8.688;2023-03-25T10:45:54;99455.14;;;10.87;71.05
3748;BME280;1889;50.058;8.688;2023-03-25T10:48:28;99436.05;;;11.09;70.33
3748;BME280;1889;50.058;8.688;2023-03-25T10:51:11;99433.17;;;11.30;68.61
3748;BME280;1889;50.058;8.688;2023-03-25T10:53:41;99431.47;;;11.83;65.43
3748;BME280;1889;50.058;8.688;2023-03-25T10:56:16;99431.47;;;11.83;65.43
3748;BME280;1889;50.058;8.688;2023-03-25T10:58:49;99451.77;;;12.06;65.39
3748;BME280;1889;50.058;8.688;2023-03-25T11:01:25;99425.12;;;12.14;63.78
3748;BME280;1889;50.058;8.688;2023-03-25T11:03:52;99432.72;;;12.10;64.10
3748;BME280;1889;50.058;8.688;2023-03-25T11:06:33;99426.31;;;12.17;62.66
3748;BME280;1889;50.058;8.688;2023-03-25T11:09:21;99430.98;;;12.22;60.73
3748;BME280;1889;50.058;8.688;2023-03-25T11:11:47;99442.35;;;12.36;60.29
3748;BME280;1889;50.058;8.688;2023-03-25T11:14:22;99428.38;;;12.45;58.90
3748;BME280;1889;50.058;8.688;2023-03-25T11:16:57;99449.33;;;12.61;58.97
3748;BME280;1889;50.058;8.688;2023-03-25T11:19:35;99434.29;;;12.40;57.97
3748;BME280;1889;50.058;8.688;2023-03-25T11:22:08;99436.77;;;12.56;57.85
3748;BME280;1889;50.058;8.688;2023-03-25T11:24:43;99425.95;;;12.74;55.75
3748;BME280;1889;50.058;8.688;2023-03-25T11:27:17;99430.22;;;12.78;56.29
3748;BME280;1889;50.058;8.688;2023-03-25T11:29:58;99432.92;;;12.88;54.54
3748;BME280;1889;50.058;8.688;2023-03-25T11:32:37;99416.64;;;12.99;55.45
3748;BME280;1889;50.058;8.688;2023-03-25T11:35:14;99422.56;;;13.17;53.44
3748;BME280;1889;50.058;8.688;2023-03-25T11:37:53;99406.81;;;13.14;51.93
3748;BME280;1889;50.058;8.688;2023-03-25T11:40:19;99415.94;;;13.29;51.28
3748;BME280;1889;50.058;8.688;2023-03-25T11:42:59;99406.78;;;13.48;50.95
3748;BME280;1889;50.058;8.688;2023-03-25T11:45:35;99409.88;;;13.69;50.26
3748;BME280;1889;50.058;8.688;2023-03-25T11:48:21;99402.94;;;13.77;49.18
3748;BME280;1889;50.058;8.688;2023-03-25T11:50:57;99401.69;;;13.85;49.24
3748;BME280;1889;50.058;8.688;2023-03-25T11:53:30;99407.19;;;14.01;49.19
3748;BME280;1889;50.058;8.688;2023-03-25T11:56:06;99397.89;;;14.11;49.51
3748;BME280;1889;50.058;8.688;2023-03-25T11:58:37;99405.77;;;13.82;48.34
3748;BME280;1889;50.058;8.688;2023-03-25T12:01:58;99405.84;;;13.91;47.54
3748;BME280;1889;50.058;8.688;2023-03-25T12:03:44;99406.09;;;13.95;48.24
3748;BME280;1889;50.058;8.688;2023-03-25T12:06:19;99390.51;;;14.09;47.72
3748;BME280;1889;50.058;8.688;2023-03-25T12:08:58;99390.51;;;14.09;47.72
3748;BME280;1889;50.058;8.688;2023-03-25T12:11:31;99385.00;;;14.03;47.02
3748;BME280;1889;50.058;8.688;2023-03-25T12:14:12;99388.84;;;14.06;46.44
3748;BME280;1889;50.058;8.688;2023-03-25T12:20:12;99382.34;;;14.24;45.12
3748;BME280;1889;50.058;8.688;2023-03-25T12:22:54;99381.37;;;14.16;43.38
3748;BME280;1889;50.058;8.688;2023-03-25T12:25:31;99367.55;;;14.09;44.53
3748;BME280;1889;50.058;8.688;2023-03-25T12:28:14;99360.43;;;14.30;44.33
3748;BME280;1889;50.058;8.688;2023-03-25T12:33:49;99360.44;;;14.97;42.89
3748;BME280;1889;50.058;8.688;2023-03-25T12:36:32;99346.39;;;15.22;41.81
3748;BME280;1889;50.058;8.688;2023-03-25T12:47:22;99336.40;;;15.80;39.92
3748;BME280;1889;50.058;8.688;2023-03-25T12:50:20;99339.50;;;15.97;39.88
3748;BME280;1889;50.058;8.688;2023-03-25T12:55:44;99330.22;;;15.97;40.01
3748;BME280;1889;50.058;8.688;2023-03-25T13:01:12;99343.52;;;15.35;41.32
3748;BME280;1889;50.058;8.688;2023-03-25T13:03:51;99342.81;;;15.49;41.00
3748;BME280;1889;50.058;8.688;2023-03-25T13:06:46;99346.08;;;15.55;41.84
3748;BME280;1889;50.058;8.688;2023-03-25T13:09:25;99349.48;;;15.57;41.74
3748;BME280;1889;50.058;8.688;2023-03-25T13:11:53;99358.56;;;15.62;42.15
3748;BME280;1889;50.058;8.688;2023-03-25T13:14:36;99368.16;;;15.64;42.36
3748;BME280;1889;50.058;8.688;2023-03-25T13:17:05;99369.11;;;15.36;44.68
3748;BME280;1889;50.058;8.688;2023-03-25T13:19:33;99369.11;;;15.36;44.68
3748;BME280;1889;50.058;8.688;2023-03-25T13:22:14;99368.11;;;15.39;46.12
3748;BME280;1889;50.058;8.688;2023-03-25T13:24:50;99368.11;;;15.39;46.12
3748;BME280;1889;50.058;8.688;2023-03-25T13:27:21;99372.56;;;15.47;46.10
3748;BME280;1889;50.058;8.688;2023-03-25T13:29:53;99372.56;;;15.47;46.10
3748;BME280;1889;50.058;8.688;2023-03-25T13:35:10;99372.50;;;15.57;46.41
3748;BME280;1889;50.058;8.688;2023-03-25T13:37:52;99377.55;;;15.53;46.23
3748;BME280;1889;50.058;8.688;2023-03-25T13:40:25;99377.27;;;15.59;47.67
3748;BME280;1889;50.058;8.688;2023-03-25T13:51:15;99369.79;;;15.22;48.53
3748;BME280;1889;50.058;8.688;2023-03-25T13:53:56;99369.79;;;15.22;48.53
3748;BME280;1889;50.058;8.688;2023-03-25T14:08:43;99358.84;;;15.73;44.08
3748;BME280;1889;50.058;8.688;2023-03-25T14:14:07;99357.70;;;15.87;42.57
3748;BME280;1889;50.058;8.688;2023-03-25T14:16:55;99357.70;;;15.87;42.57
3748;BME280;1889;50.058;8.688;2023-03-25T14:19:37;99359.77;;;15.46;40.54
3748;BME280;1889;50.058;8.688;2023-03-25T14:22:19;99349.77;;;15.51;40.62
3748;BME280;1889;50.058;8.688;2023-03-25T14:24:49;99351.14;;;15.60;40.54
3748;BME280;1889;50.058;8.688;2023-03-25T14:27:26;99350.28;;;15.59;40.59
3748;BME280;1889;50.058;8.688;2023-03-25T14:30:22;99375.34;;;15.80;40.57
3748;BME280;1889;50.058;8.688;2023-03-25T14:32:54;99375.34;;;15.80;40.57
3748;BME280;1889;50.058;8.688;2023-03-25T14:43:36;99358.17;;;15.78;39.71
3748;BME280;1889;50.058;8.688;2023-03-25T14:49:21;99336.28;;;15.99;38.64
3748;BME280;1889;50.058;8.688;2023-03-25T14:54:34;99363.94;;;16.36;37.71
3748;BME280;1889;50.058;8.688;2023-03-25T14:57:08;99346.88;;;16.40;37.47
3748;BME280;1889;50.058;8.688;2023-03-25T14:59:49;99338.00;;;16.82;37.07
3748;BME280;1889;50.058;8.688;2023-03-25T15:02:23;99338.76;;;17.15;36.76
3748;BME280;1889;50.058;8.688;2023-03-25T15:08:23;99330.31;;;17.98;34.50
3748;BME280;1889;50.058;8.688;2023-03-25T15:11:03;99316.05;;;18.13;33.16
3748;BME280;1889;50.058;8.688;2023-03-25T15:13:34;99316.05;;;18.13;33.16
3748;BME280;1889;50.058;8.688;2023-03-25T15:16:30;99338.30;;;18.34;33.35
3748;BME280;1889;50.058;8.688;2023-03-25T15:19:01;99320.91;;;18.28;32.42
3748;BME280;1889;50.058;8.688;2023-03-25T15:21:33;99348.98;;;18.48;31.13
3748;BME280;1889;50.058;8.688;2023-03-25T15:24:06;99334.69;;;18.77;31.06
3748;BME280;1889;50.058;8.688;2023-03-25T15:26:45;99336.59;;;18.54;30.81
3748;BME280;1889;50.058;8.688;2023-03-25T15:32:34;99332.56;;;18.96;30.47
3748;BME280;1889;50.058;8.688;2023-03-25T15:35:32;99335.47;;;19.06;30.17
3748;BME280;1889;50.058;8.688;2023-03-25T15:38:30;99320.41;;;19.12;30.87
3748;BME280;1889;50.058;8.688;2023-03-25T15:41:19;99319.81;;;19.21;30.98
3748;BME280;1889;50.058;8.688;2023-03-25T15:50:04;99350.73;;;19.04;32.12
3748;BME280;1889;50.058;8.688;2023-03-25T15:55:52;99329.45;;;18.33;33.47
3748;BME280;1889;50.058;8.688;2023-03-25T15:58:34;99319.19;;;18.55;33.20
3748;BME280;1889;50.058;8.688;2023-03-25T16:01:02;99321.27;;;18.79;32.59
3748;BME280;1889;50.058;8.688;2023-03-25T16:03:31;99319.48;;;18.29;33.28
3748;BME280;1889;50.058;8.688;2023-03-25T16:06:04;99344.78;;;17.64;34.00
3748;BME280;1889;50.058;8.688;2023-03-25T16:08:39;99327.34;;;17.88;33.97
3748;BME280;1889;50.058;8.688;2023-03-25T16:14:09;99343.68;;;17.75;33.78
3748;BME280;1889;50.058;8.688;2023-03-25T16:16:40;99330.05;;;17.43;33.83
3748;BME280;1889;50.058;8.688;2023-03-25T16:19:14;99329.36;;;16.94;34.64
3748;BME280;1889;50.058;8.688;2023-03-25T16:21:42;99331.59;;;16.86;34.93
3748;BME280;1889;50.058;8.688;2023-03-25T16:24:13;99331.75;;;16.83;35.04
3748;BME280;1889;50.058;8.688;2023-03-25T16:26:45;99348.23;;;16.65;35.69
3748;BME280;1889;50.058;8.688;2023-03-25T16:29:21;99339.70;;;16.43;36.37
3748;BME280;1889;50.058;8.688;2023-03-25T16:31:57;99340.32;;;16.39;36.55
3748;BME280;1889;50.058;8.688;2023-03-25T16:34:28;99340.81;;;16.30;36.99
3748;BME280;1889;50.058;8.688;2023-03-25T16:36:58;99336.70;;;16.24;37.28
3748;BME280;1889;50.058;8.688;2023-03-25T16:39:31;99344.11;;;15.85;37.80
3748;BME280;1889;50.058;8.688;2023-03-25T16:42:04;99356.87;;;15.51;37.56
3748;BME280;1889;50.058;8.688;2023-03-25T16:44:35;99357.51;;;15.47;37.85
3748;BME280;1889;50.058;8.688;2023-03-25T16:47:04;99357.51;;;15.47;38.42
3748;BME280;1889;50.058;8.688;2023-03-25T16:49:35;99366.39;;;15.46;38.78
3748;BME280;1889;50.058;8.688;2023-03-25T16:52:10;99360.77;;;15.44;38.65
3748;BME280;1889;50.058;8.688;2023-03-25T16:55:06;99359.13;;;15.50;38.87
3748;BME280;1889;50.058;8.688;2023-03-25T16:57:31;99363.09;;;15.24;39.91
3748;BME280;1889;50.058;8.688;2023-03-25T16:59:55;99363.09;;;15.24;39.91
3748;BME280;1889;50.058;8.688;2023-03-25T17:02:29;99355.26;;;15.12;40.42
3748;BME280;1889;50.058;8.688;2023-03-25T17:05:14;99364.58;;;15.30;40.05
3748;BME280;1889;50.058;8.688;2023-03-25T17:07:45;99365.61;;;15.00;40.19
3748;BME280;1889;50.058;8.688;2023-03-25T17:10:21;99373.81;;;15.12;40.18
3748;BME280;1889;50.058;8.688;2023-03-25T17:13:13;99376.39;;;15.14;40.66